Terminal Aerodrome Forecast
Issued by NWS

Home | Current Version | Previous Version | Text Only | Print | Product List | Glossary On
Versions: 1 2 3 4 5 6 7 8 9 10 11 12 13 14 15 16 17 18 19 20 21 22
000
FTUS43 KIND 291100
TAFHUF
TAF
KHUF 291122Z 2912/3012 20012KT P6SM SCT070 BKN120 WS020/24045KT
     FM291500 27015G23KT P6SM BKN025
     FM291700 30017G26KT P6SM OVC015
     FM292200 31014G20KT P6SM OVC015
     FM300600 32012G18KT P6SM BKN020=

USA.gov is the U.S. government's official web portal to all federal, state and local government web resources and services.